createdAt,value
2023-05-05T00:00:59.967Z,16.64
2023-05-05T00:03:28.243Z,16.55
2023-05-05T00:05:57.514Z,16.48
2023-05-05T00:08:25.508Z,16.45
2023-05-05T00:10:54.212Z,16.42
2023-05-05T00:13:22.681Z,16.43
2023-05-05T00:15:53.455Z,16.39
2023-05-05T00:18:22.074Z,16.35
2023-05-05T00:20:49.876Z,16.32
2023-05-05T00:23:21.174Z,16.32
2023-05-05T00:25:48.917Z,16.33
2023-05-05T00:28:16.706Z,16.33
2023-05-05T00:30:44.634Z,16.30
2023-05-05T00:33:12.437Z,16.28
2023-05-05T00:35:40.361Z,16.24
2023-05-05T00:38:08.509Z,16.21
2023-05-05T00:40:38.119Z,16.20
2023-05-05T00:43:06.195Z,16.22
2023-05-05T00:45:33.995Z,16.19
2023-05-05T00:48:02.458Z,16.11
2023-05-05T00:50:31.550Z,16.08
2023-05-05T00:53:02.611Z,16.06
2023-05-05T00:55:31.225Z,16.04
2023-05-05T00:58:01.615Z,16.04
2023-05-05T01:00:29.997Z,16.02
2023-05-05T01:02:58.067Z,16.07
2023-05-05T01:05:28.910Z,16.09
2023-05-05T01:08:15.298Z,16.08
2023-05-05T01:10:49.820Z,16.09
2023-05-05T01:13:33.177Z,16.06
2023-05-05T01:16:11.708Z,16.09
2023-05-05T01:18:46.808Z,16.06
2023-05-05T01:21:19.364Z,16.03
2023-05-05T01:24:22.072Z,16.01
2023-05-05T01:27:01.492Z,15.97
2023-05-05T01:29:51.629Z,15.97
2023-05-05T01:32:26.802Z,16.01
2023-05-05T01:34:59.563Z,15.94
2023-05-05T01:37:30.181Z,15.91
2023-05-05T01:40:03.656Z,15.93
2023-05-05T01:42:33.540Z,15.93
2023-05-05T01:45:04.535Z,15.89
2023-05-05T01:47:33.604Z,15.91
2023-05-05T01:50:03.911Z,15.97
2023-05-05T01:52:32.632Z,15.97
2023-05-05T01:55:02.494Z,15.96
2023-05-05T01:57:32.703Z,15.95
2023-05-05T02:00:06.103Z,15.93
2023-05-05T02:02:46.467Z,15.89
2023-05-05T02:05:16.268Z,15.86
2023-05-05T02:07:45.710Z,15.83
2023-05-05T02:10:14.855Z,15.86
2023-05-05T02:12:44.479Z,15.87
2023-05-05T02:15:14.045Z,15.90
2023-05-05T02:17:44.067Z,15.92
2023-05-05T02:20:14.264Z,15.95
2023-05-05T02:22:42.335Z,15.98
2023-05-05T02:25:10.940Z,15.95
2023-05-05T02:27:43.437Z,15.89
2023-05-05T02:30:15.370Z,15.82
2023-05-05T02:32:49.374Z,15.79
2023-05-05T02:35:21.906Z,15.80
2023-05-05T02:37:59.436Z,15.83
2023-05-05T02:40:33.159Z,15.85
2023-05-05T02:43:07.349Z,15.79
2023-05-05T02:45:35.234Z,15.75
2023-05-05T02:48:05.337Z,15.67
2023-05-05T02:50:37.771Z,15.63
2023-05-05T02:53:15.069Z,15.55
2023-05-05T02:55:56.014Z,15.52
2023-05-05T02:58:35.665Z,15.47
2023-05-05T03:01:12.675Z,15.44
2023-05-05T03:03:48.056Z,15.43
2023-05-05T03:06:20.090Z,15.40
2023-05-05T03:08:57.158Z,15.33
2023-05-05T03:11:28.784Z,15.23
2023-05-05T03:14:06.619Z,15.13
2023-05-05T03:16:36.944Z,15.13
2023-05-05T03:19:09.627Z,15.06
2023-05-05T03:21:38.339Z,14.98
2023-05-05T03:24:15.402Z,14.97
2023-05-05T03:26:47.235Z,14.92
2023-05-05T03:29:15.740Z,14.81
2023-05-05T03:31:43.698Z,14.81
2023-05-05T03:34:12.860Z,14.74
2023-05-05T03:36:46.083Z,14.65
2023-05-05T03:39:16.410Z,14.57
2023-05-05T03:41:44.358Z,14.59
2023-05-05T03:44:13.502Z,14.61
2023-05-05T03:46:41.312Z,14.57
2023-05-05T03:49:13.822Z,14.56
2023-05-05T03:51:43.219Z,14.56
2023-05-05T03:54:11.183Z,14.49
2023-05-05T03:56:39.016Z,14.36
2023-05-05T03:59:07.640Z,14.21
2023-05-05T04:01:36.165Z,14.08
2023-05-05T04:04:04.146Z,14.01
2023-05-05T04:06:33.369Z,13.99
2023-05-05T04:09:01.201Z,13.95
2023-05-05T04:11:28.990Z,13.89
2023-05-05T04:13:56.953Z,13.86
2023-05-05T04:16:26.084Z,13.79
2023-05-05T04:18:55.308Z,13.75
2023-05-05T04:21:23.158Z,13.72
2023-05-05T04:23:52.781Z,13.75
2023-05-05T04:26:21.977Z,13.75
2023-05-05T04:28:50.384Z,13.71
2023-05-05T04:31:19.809Z,13.72
2023-05-05T04:33:48.133Z,13.64
2023-05-05T04:36:16.149Z,13.63
2023-05-05T04:38:43.936Z,13.58
2023-05-05T04:41:13.535Z,13.48
2023-05-05T04:43:43.372Z,13.46
2023-05-05T04:46:11.207Z,13.51
2023-05-05T04:48:39.431Z,13.58
2023-05-05T04:51:08.606Z,13.62
2023-05-05T04:53:37.632Z,13.62
2023-05-05T04:56:05.650Z,13.64
2023-05-05T04:58:34.834Z,13.64
2023-05-05T05:01:03.296Z,13.64
2023-05-05T05:03:32.100Z,13.61
2023-05-05T05:06:00.227Z,13.65
2023-05-05T05:08:27.986Z,13.64
2023-05-05T05:10:55.799Z,13.64
2023-05-05T05:13:23.958Z,13.66
2023-05-05T05:15:53.375Z,13.66
2023-05-05T05:18:21.174Z,13.70
2023-05-05T05:20:50.501Z,13.71
2023-05-05T05:23:19.035Z,13.75
2023-05-05T05:25:47.407Z,13.79
2023-05-05T05:28:18.460Z,13.84
2023-05-05T05:30:51.991Z,13.87
2023-05-05T05:33:21.157Z,13.90
2023-05-05T05:35:49.513Z,13.96
2023-05-05T05:38:19.246Z,13.98
2023-05-05T05:40:47.965Z,14.01
2023-05-05T05:43:15.836Z,14.02
2023-05-05T05:45:43.695Z,14.03
2023-05-05T05:48:11.662Z,14.04
2023-05-05T05:50:43.588Z,14.08
2023-05-05T05:53:11.417Z,14.14
2023-05-05T05:55:39.277Z,14.19
2023-05-05T05:58:14.829Z,14.22
2023-05-05T06:00:42.636Z,14.26
2023-05-05T06:03:12.455Z,14.33
2023-05-05T06:05:41.874Z,14.40
2023-05-05T06:08:09.996Z,14.49
2023-05-05T06:10:42.888Z,14.56
2023-05-05T06:13:16.247Z,14.64
2023-05-05T06:15:47.307Z,14.74
2023-05-05T06:18:16.038Z,14.88
2023-05-05T06:20:45.292Z,15.00
2023-05-05T06:23:15.452Z,15.15
2023-05-05T06:25:48.222Z,15.33
2023-05-05T06:28:16.260Z,15.48
2023-05-05T06:30:44.066Z,15.61
2023-05-05T06:33:11.833Z,15.71
2023-05-05T06:35:39.576Z,15.86
2023-05-05T06:38:09.670Z,15.97
2023-05-05T06:40:37.427Z,16.07
2023-05-05T06:43:05.337Z,16.18
2023-05-05T06:45:37.856Z,16.31
2023-05-05T06:48:05.820Z,16.45
2023-05-05T06:50:33.863Z,16.61
2023-05-05T06:53:01.744Z,16.80
2023-05-05T06:55:30.868Z,16.95
2023-05-05T06:57:58.642Z,17.14
2023-05-05T07:00:26.653Z,17.32
2023-05-05T07:02:54.445Z,17.42
2023-05-05T07:05:22.303Z,17.56
2023-05-05T07:07:53.665Z,17.70
2023-05-05T07:10:22.434Z,17.81
2023-05-05T07:12:52.404Z,17.88
2023-05-05T07:15:28.829Z,17.97
2023-05-05T07:17:57.928Z,18.16
2023-05-05T07:20:26.781Z,18.31
2023-05-05T07:22:54.896Z,18.51
2023-05-05T07:25:22.862Z,18.62
2023-05-05T07:27:52.175Z,18.64
2023-05-05T07:30:20.176Z,18.67
2023-05-05T07:32:48.200Z,18.74
2023-05-05T07:35:16.258Z,18.91
2023-05-05T07:37:44.944Z,19.13
2023-05-05T07:40:13.404Z,19.37
2023-05-05T07:42:41.232Z,19.42
2023-05-05T07:45:11.050Z,19.46
2023-05-05T07:47:38.931Z,19.73
2023-05-05T07:50:08.463Z,19.82
2023-05-05T07:52:46.619Z,19.84
2023-05-05T07:55:17.654Z,19.99
2023-05-05T07:57:45.489Z,20.11
2023-05-05T08:00:15.848Z,19.99
2023-05-05T08:02:44.025Z,20.06
2023-05-05T08:05:12.713Z,20.34
2023-05-05T08:07:41.839Z,20.45
2023-05-05T08:10:11.318Z,20.66
2023-05-05T08:12:39.283Z,21.03
2023-05-05T08:15:08.163Z,21.18
2023-05-05T08:17:48.082Z,21.17
2023-05-05T08:20:16.198Z,20.95
2023-05-05T08:22:44.395Z,20.86
2023-05-05T08:25:12.990Z,21.17
2023-05-05T08:27:41.693Z,21.46
2023-05-05T08:30:10.399Z,21.63
2023-05-05T08:32:38.989Z,21.62
2023-05-05T08:35:09.113Z,21.75
2023-05-05T08:37:37.172Z,21.83
2023-05-05T08:40:05.705Z,21.72
2023-05-05T08:42:38.494Z,21.57
2023-05-05T08:45:09.036Z,21.53
2023-05-05T08:47:38.493Z,21.43
2023-05-05T08:50:10.990Z,21.41
2023-05-05T08:52:41.364Z,21.42
2023-05-05T08:55:15.249Z,21.34
2023-05-05T08:57:52.498Z,21.25
2023-05-05T09:00:21.206Z,21.15
2023-05-05T09:02:49.860Z,20.87
2023-05-05T09:05:19.319Z,20.92
2023-05-05T09:07:47.618Z,20.96
2023-05-05T09:10:15.929Z,20.81
2023-05-05T09:12:43.861Z,20.79
2023-05-05T09:15:14.066Z,20.77
2023-05-05T09:17:42.894Z,20.64
2023-05-05T09:20:13.446Z,20.60
2023-05-05T09:22:44.715Z,20.58
2023-05-05T09:25:13.870Z,20.41
2023-05-05T09:27:43.189Z,20.20
2023-05-05T09:30:13.160Z,20.24
2023-05-05T09:32:48.797Z,20.30
2023-05-05T09:35:17.370Z,20.29
2023-05-05T09:37:46.843Z,20.23
2023-05-05T09:40:16.406Z,20.10
2023-05-05T09:42:44.925Z,19.95
2023-05-05T09:45:27.270Z,19.82
2023-05-05T09:47:59.620Z,19.79
2023-05-05T09:50:30.725Z,19.71
2023-05-05T09:53:02.020Z,19.76
2023-05-05T09:55:30.903Z,19.62
2023-05-05T09:57:58.956Z,19.66
2023-05-05T10:00:39.679Z,19.55
2023-05-05T10:03:07.690Z,19.59
2023-05-05T10:05:48.288Z,19.57
2023-05-05T10:08:18.586Z,19.44
2023-05-05T10:10:53.615Z,19.33
2023-05-05T10:13:22.853Z,19.38
2023-05-05T10:15:52.110Z,19.50
2023-05-05T10:18:24.214Z,19.34
2023-05-05T10:20:59.129Z,18.77
2023-05-05T10:23:36.854Z,17.87
2023-05-05T10:26:08.019Z,17.42
2023-05-05T10:28:42.770Z,17.30
2023-05-05T10:31:25.991Z,17.26
2023-05-05T10:34:01.247Z,17.15
2023-05-05T10:36:31.617Z,17.08
2023-05-05T10:39:01.635Z,16.91
2023-05-05T10:41:30.930Z,16.85
2023-05-05T10:44:02.082Z,16.82
2023-05-05T10:46:31.969Z,16.88
2023-05-05T10:49:10.557Z,16.88
2023-05-05T10:51:48.057Z,16.80
2023-05-05T10:54:24.368Z,16.75
2023-05-05T10:56:52.873Z,16.76
2023-05-05T10:59:50.579Z,16.62
2023-05-05T11:02:23.504Z,16.53
2023-05-05T11:05:22.555Z,16.40
2023-05-05T11:07:52.068Z,16.30
2023-05-05T11:10:23.016Z,16.20
2023-05-05T11:13:09.334Z,16.10
2023-05-05T11:15:41.533Z,15.96
2023-05-05T11:18:28.739Z,15.87
2023-05-05T11:21:15.561Z,15.80
2023-05-05T11:23:48.247Z,15.84
2023-05-05T11:26:19.513Z,15.86
2023-05-05T11:28:59.059Z,15.87
2023-05-05T11:31:27.002Z,15.83
2023-05-05T11:33:54.883Z,15.74
2023-05-05T11:36:40.597Z,15.61
2023-05-05T11:39:10.691Z,15.53
2023-05-05T11:41:58.261Z,15.31
2023-05-05T11:44:32.150Z,15.24
2023-05-05T11:47:29.219Z,15.16
2023-05-05T11:49:57.290Z,15.09
2023-05-05T11:52:29.533Z,15.08
2023-05-05T11:55:02.428Z,14.90
2023-05-05T11:57:31.928Z,14.76
2023-05-05T12:00:01.825Z,14.56
2023-05-05T12:02:32.805Z,14.40
2023-05-05T12:05:01.486Z,14.32
2023-05-05T12:07:31.350Z,14.32
2023-05-05T12:09:59.268Z,14.35
2023-05-05T12:12:39.371Z,14.42
2023-05-05T12:15:09.163Z,14.50
2023-05-05T12:17:42.625Z,14.51
2023-05-05T12:20:12.321Z,14.54
2023-05-05T12:22:40.670Z,14.56
2023-05-05T12:25:09.742Z,14.58
2023-05-05T12:27:39.174Z,14.60
2023-05-05T12:30:17.702Z,14.63
2023-05-05T12:32:46.562Z,14.68
2023-05-05T12:35:15.929Z,14.72
2023-05-05T12:37:44.253Z,14.67
2023-05-05T12:40:45.305Z,14.71
2023-05-05T12:43:27.066Z,14.72
2023-05-05T12:46:05.930Z,14.71
2023-05-05T12:48:34.514Z,14.72
2023-05-05T12:51:16.217Z,14.73
2023-05-05T12:53:44.446Z,14.70
2023-05-05T12:56:40.750Z,14.75
2023-05-05T12:59:11.825Z,14.69
2023-05-05T13:01:50.987Z,14.67
2023-05-05T13:04:19.605Z,14.68
2023-05-05T13:06:49.146Z,14.69
2023-05-05T13:09:27.130Z,14.64
2023-05-05T13:11:55.707Z,14.65
2023-05-05T13:14:24.901Z,14.65
2023-05-05T13:16:52.638Z,14.65
2023-05-05T13:19:20.675Z,14.57
2023-05-05T13:21:48.481Z,14.47
2023-05-05T13:24:23.618Z,14.52
2023-05-05T13:26:57.086Z,14.53
2023-05-05T13:29:30.397Z,14.40
2023-05-05T13:31:59.262Z,14.39
2023-05-05T13:34:27.138Z,14.33
2023-05-05T13:36:55.015Z,14.35
2023-05-05T13:39:22.883Z,14.42
2023-05-05T13:41:50.695Z,14.40
2023-05-05T13:44:18.708Z,14.34
2023-05-05T13:46:47.933Z,14.33
2023-05-05T13:49:15.702Z,14.38
2023-05-05T13:51:43.477Z,14.45
2023-05-05T13:54:11.275Z,14.48
2023-05-05T13:56:39.105Z,14.46
2023-05-05T13:59:06.977Z,14.53
2023-05-05T14:01:34.965Z,14.52
2023-05-05T14:04:05.620Z,14.43
2023-05-05T14:06:34.238Z,14.31
2023-05-05T14:09:05.532Z,14.31
2023-05-05T14:11:33.443Z,14.28
2023-05-05T14:14:01.656Z,14.23
2023-05-05T14:16:29.476Z,14.31
2023-05-05T14:18:57.282Z,14.32
2023-05-05T14:21:27.516Z,14.38
2023-05-05T14:23:55.606Z,14.39
2023-05-05T14:26:23.352Z,14.30
2023-05-05T14:28:51.156Z,14.22
2023-05-05T14:31:18.935Z,14.27
2023-05-05T14:33:46.894Z,14.27
2023-05-05T14:36:15.196Z,14.36
2023-05-05T14:38:44.376Z,14.35
2023-05-05T14:41:12.351Z,14.36
2023-05-05T14:43:40.085Z,14.39
2023-05-05T14:46:07.914Z,14.39
2023-05-05T14:48:35.959Z,14.38
2023-05-05T14:51:04.714Z,14.40
2023-05-05T14:53:32.537Z,14.39
2023-05-05T14:56:02.145Z,14.49
2023-05-05T14:58:31.053Z,14.56
2023-05-05T15:00:58.975Z,14.61
2023-05-05T15:03:27.069Z,14.68
2023-05-05T15:05:55.015Z,14.69
2023-05-05T15:08:22.802Z,14.66
2023-05-05T15:10:50.628Z,14.63
2023-05-05T15:13:19.893Z,14.57
2023-05-05T15:15:48.894Z,14.64
2023-05-05T15:18:16.730Z,14.62
2023-05-05T15:20:44.574Z,14.57
2023-05-05T15:23:12.343Z,14.63
2023-05-05T15:25:40.174Z,14.67
2023-05-05T15:28:07.958Z,14.70
2023-05-05T15:30:37.074Z,14.76
2023-05-05T15:33:04.944Z,14.87
2023-05-05T15:35:32.811Z,14.93
2023-05-05T15:38:00.589Z,14.95
2023-05-05T15:40:28.438Z,14.89
2023-05-05T15:42:56.321Z,14.96
2023-05-05T15:45:24.429Z,14.90
2023-05-05T15:47:53.871Z,14.88
2023-05-05T15:50:23.292Z,14.95
2023-05-05T15:52:51.083Z,14.96
2023-05-05T15:55:18.845Z,15.04
2023-05-05T15:57:46.611Z,15.06
2023-05-05T16:00:15.999Z,15.10
2023-05-05T16:02:43.803Z,15.13
2023-05-05T16:05:13.405Z,15.13
2023-05-05T16:07:41.275Z,15.08
2023-05-05T16:10:10.704Z,15.09
2023-05-05T16:12:38.527Z,15.17
2023-05-05T16:15:07.490Z,15.22
2023-05-05T16:17:35.609Z,15.25
2023-05-05T16:20:03.843Z,15.25
2023-05-05T16:22:33.064Z,15.22
2023-05-05T16:25:00.910Z,15.18
2023-05-05T16:27:28.677Z,15.20
2023-05-05T16:29:58.461Z,15.24
2023-05-05T16:32:27.228Z,15.29
2023-05-05T16:34:55.042Z,15.22
2023-05-05T16:37:22.844Z,15.25
2023-05-05T16:39:51.999Z,15.30
2023-05-05T16:42:20.215Z,15.32
2023-05-05T16:44:48.000Z,15.33
2023-05-05T16:47:15.754Z,15.36
2023-05-05T16:49:43.582Z,15.28
2023-05-05T16:52:11.356Z,15.28
2023-05-05T16:54:39.088Z,15.30
2023-05-05T16:57:08.244Z,15.33
2023-05-05T16:59:35.998Z,15.35
2023-05-05T17:02:03.866Z,15.37
2023-05-05T17:04:31.795Z,15.35
2023-05-05T17:06:59.506Z,15.21
2023-05-05T17:09:27.464Z,15.26
2023-05-05T17:11:55.262Z,15.29
2023-05-05T17:14:25.304Z,15.33
2023-05-05T17:16:54.337Z,15.21
2023-05-05T17:19:22.139Z,15.12
2023-05-05T17:21:49.946Z,15.14
2023-05-05T17:24:17.708Z,15.23
2023-05-05T17:26:45.540Z,15.29
2023-05-05T17:29:14.203Z,15.31
2023-05-05T17:31:43.416Z,15.34
2023-05-05T17:34:11.259Z,15.37
2023-05-05T17:36:39.055Z,15.38
2023-05-05T17:39:06.864Z,15.38
2023-05-05T17:41:34.861Z,15.33
2023-05-05T17:44:02.712Z,15.32
2023-05-05T17:46:30.555Z,15.36
2023-05-05T17:49:00.360Z,15.37
2023-05-05T17:51:28.553Z,15.28
2023-05-05T17:53:56.371Z,15.30
2023-05-05T17:56:24.290Z,15.29
2023-05-05T17:58:52.508Z,15.34
2023-05-05T18:01:23.212Z,15.27
2023-05-05T18:03:51.224Z,15.27
2023-05-05T18:06:20.374Z,15.29
2023-05-05T18:08:48.178Z,15.29
2023-05-05T18:11:16.265Z,15.29
2023-05-05T18:13:44.208Z,15.31
2023-05-05T18:16:12.019Z,15.26
2023-05-05T18:18:41.116Z,15.16
2023-05-05T18:21:12.184Z,15.10
2023-05-05T18:23:41.645Z,15.12
2023-05-05T18:26:09.786Z,15.20
2023-05-05T18:28:37.888Z,15.24
2023-05-05T18:31:06.189Z,15.20
2023-05-05T18:33:34.117Z,15.22
2023-05-05T18:36:03.211Z,15.23
2023-05-05T18:38:32.520Z,15.25
2023-05-05T18:41:01.692Z,15.15
2023-05-05T18:43:29.479Z,15.05
2023-05-05T18:45:57.330Z,15.03
2023-05-05T18:48:26.187Z,15.05
2023-05-05T18:50:54.041Z,15.02
2023-05-05T18:53:21.814Z,14.98
2023-05-05T18:55:49.620Z,14.98
2023-05-05T18:58:18.874Z,14.99
2023-05-05T19:00:46.688Z,14.98
2023-05-05T19:03:14.459Z,14.96
2023-05-05T19:05:42.444Z,14.96
2023-05-05T19:08:10.349Z,14.67
2023-05-05T19:10:38.196Z,14.65
2023-05-05T19:13:06.111Z,14.68
2023-05-05T19:15:35.317Z,14.68
2023-05-05T19:18:03.386Z,14.55
2023-05-05T19:20:31.759Z,14.31
2023-05-05T19:23:03.641Z,14.33
2023-05-05T19:25:31.686Z,14.38
2023-05-05T19:27:59.562Z,14.24
2023-05-05T19:30:27.445Z,14.14
2023-05-05T19:32:56.773Z,14.07
2023-05-05T19:35:24.623Z,14.04
2023-05-05T19:37:52.460Z,13.88
2023-05-05T19:40:20.668Z,13.75
2023-05-05T19:42:48.469Z,13.73
2023-05-05T19:45:16.453Z,13.82
2023-05-05T19:47:46.095Z,13.83
2023-05-05T19:50:16.248Z,13.83
2023-05-05T19:52:44.047Z,13.82
2023-05-05T19:55:12.967Z,13.81
2023-05-05T19:57:41.066Z,13.82
2023-05-05T20:00:10.957Z,13.82
2023-05-05T20:02:39.075Z,13.83
2023-05-05T20:05:07.795Z,13.80
2023-05-05T20:07:36.956Z,13.76
2023-05-05T20:10:05.329Z,13.66
2023-05-05T20:12:33.179Z,13.70
2023-05-05T20:15:01.283Z,13.65
2023-05-05T20:17:29.067Z,13.68
2023-05-05T20:19:57.671Z,13.68
2023-05-05T20:22:26.529Z,13.66
2023-05-05T20:24:55.814Z,13.65
2023-05-05T20:27:24.849Z,13.63
2023-05-05T20:29:53.777Z,13.53
2023-05-05T20:32:21.577Z,13.42
2023-05-05T20:34:49.407Z,13.37
2023-05-05T20:37:17.288Z,13.39
2023-05-05T20:39:45.117Z,13.30
2023-05-05T20:42:14.284Z,13.22
2023-05-05T20:44:42.159Z,13.23
2023-05-05T20:47:10.033Z,13.25
2023-05-05T20:49:37.976Z,13.17
2023-05-05T20:52:06.244Z,13.16
2023-05-05T20:54:34.582Z,13.10
2023-05-05T20:57:03.069Z,13.10
2023-05-05T20:59:32.254Z,13.02
2023-05-05T21:02:00.127Z,13.00
2023-05-05T21:04:28.032Z,12.97
2023-05-05T21:06:55.932Z,12.92
2023-05-05T21:09:24.674Z,12.87
2023-05-05T21:11:52.503Z,12.88
2023-05-05T21:14:20.308Z,12.88
2023-05-05T21:16:49.462Z,12.77
2023-05-05T21:19:17.414Z,12.75
2023-05-05T21:21:45.296Z,12.73
2023-05-05T21:24:13.823Z,12.63
2023-05-05T21:26:43.940Z,12.62
2023-05-05T21:29:12.200Z,12.61
2023-05-05T21:31:40.071Z,12.64
2023-05-05T21:34:09.313Z,12.60
2023-05-05T21:36:38.652Z,12.62
2023-05-05T21:39:06.683Z,12.63
2023-05-05T21:41:34.519Z,12.60
2023-05-05T21:44:02.380Z,12.55
2023-05-05T21:46:30.274Z,12.46
2023-05-05T21:48:58.243Z,12.43
2023-05-05T21:51:27.387Z,12.44
2023-05-05T21:53:55.139Z,12.45
2023-05-05T21:56:22.895Z,12.42
2023-05-05T21:58:50.632Z,12.38
2023-05-05T22:01:18.439Z,12.30
2023-05-05T22:03:47.550Z,12.23
2023-05-05T22:06:17.340Z,12.19
2023-05-05T22:08:46.451Z,12.20
2023-05-05T22:11:14.449Z,12.21
2023-05-05T22:13:42.263Z,12.21
2023-05-05T22:16:10.967Z,12.22
2023-05-05T22:18:38.848Z,12.19
2023-05-05T22:21:07.121Z,12.06
2023-05-05T22:23:34.977Z,12.08
2023-05-05T22:26:04.796Z,12.11
2023-05-05T22:28:32.579Z,12.09
2023-05-05T22:31:00.379Z,12.09
2023-05-05T22:33:28.426Z,12.11
2023-05-05T22:35:56.221Z,12.13
2023-05-05T22:38:24.161Z,12.12
2023-05-05T22:40:52.001Z,12.06
2023-05-05T22:43:21.217Z,12.07
2023-05-05T22:45:49.092Z,12.02
2023-05-05T22:48:16.858Z,11.98
2023-05-05T22:50:45.621Z,11.97
2023-05-05T22:53:13.502Z,12.00
2023-05-05T22:55:41.382Z,12.00
2023-05-05T22:58:09.202Z,11.98
2023-05-05T23:00:38.339Z,11.97
2023-05-05T23:03:06.123Z,11.98
2023-05-05T23:05:34.463Z,12.03
2023-05-05T23:08:02.301Z,12.05
2023-05-05T23:10:30.324Z,12.09
2023-05-05T23:12:58.139Z,12.09
2023-05-05T23:15:26.034Z,12.10
2023-05-05T23:17:55.167Z,12.08
2023-05-05T23:20:23.242Z,11.98
2023-05-05T23:22:51.005Z,11.83
2023-05-05T23:25:18.803Z,11.75
2023-05-05T23:27:46.573Z,11.72
2023-05-05T23:30:15.174Z,11.69
2023-05-05T23:32:44.776Z,11.72
2023-05-05T23:35:13.981Z,11.74
2023-05-05T23:37:41.727Z,11.77
2023-05-05T23:40:10.318Z,11.76
2023-05-05T23:42:38.164Z,11.68
2023-05-05T23:45:06.565Z,11.62
2023-05-05T23:47:34.416Z,11.58
2023-05-05T23:50:02.344Z,11.57
2023-05-05T23:52:31.531Z,11.53
2023-05-05T23:54:59.299Z,11.51
2023-05-05T23:57:27.234Z,11.55
2023-05-05T23:59:54.997Z,11.41
